Unser Flugplatzteam

Segelflugzeugschlepp am Flugplatz Konstanz

Unsere freundlichen Mitarbeiter stehen Ihnen gerne mit Rat und Tat zur Seite:

Minky Schweizer

Flugleiterin, Beauftragte für Luftaufsicht am Verkehrlandeplatz Konstanz

Jan Schumacher

Flugleiter, Beauftragter für Luftaufsicht am Verkehrlandeplatz Konstanz

Live am Platz

Die Bilder unserer Webcams werden alle 5 Minuten aktualisiert.

Sonnenaufgang:

06:51 UTC / 07:51 Lokal

Sonnenuntergang:

15:34 UTC / 16:34 Lokal

METAR (03.12.2022 06:20 UTC):

EDNY 030520Z 04008KT 9999 OVC009 01/M01 Q1016
IFR

TAF (03.12.2022 00:00 UTC):

TAF EDNY 022300Z 0300/0324 05004KT 9000 FEW025 TEMPO 0300/0310 BKN004 BECMG 0306/0308 03009KT BECMG 0319/0321 03004KT PROB30 TEMPO 0321/0324 4000 BR BKN004

Alle Angaben unverbindlich und ohne Gewähr. Zeiten genähert.

Für den Verkehrslandeplatz Konstanz werden keine offiziellen Wetterinformationen ausgegeben. Daher werden zur Orientierung Daten des nahegelegenen Flughafens Friedrichshafen dargestellt.

Das Landeentgelt kann bei uns auch mit aerops bezahlt werden. Die App für's Handy ist kostenfrei erhältlich.